ATC @EDDL (TS1) [Closed]

Pop down if you can and post some feedback, if you want, here or on PM. :)

METAR: EDDL 022050Z 22009KT CAVOK 05/00 Q1015 NOSIG

Have a nice day.

1 Like

This topic was automatically closed 90 days after the last reply. New replies are no longer allowed.